Time;durP1;ratioP1;P1;durP2;ratioP2;P2;SDS_P1;SDS_P2;PMS_P1;PMS_P2;Temp;Humidity;BMP_temperature;BMP_pressure;BME280_temperature;BME280_humidity;BME280_pressure;Samples;Min_cycle;Max_cycle;Signal;HPM_P1;HPM_P2
2023/05/10 00:02:16;;;;;;;5.80;4.10;;;;;;;14.77;51.75;100421.34;5036620;28;20136;-70
2023/05/10 00:04:45;;;;;;;5.47;3.92;;;;;;;14.77;51.79;100429.63;5039484;28;20521;-70
2023/05/10 00:07:13;;;;;;;6.00;4.40;;;;;;;14.75;51.42;100423.44;5036832;28;20045;-70
2023/05/10 00:09:41;;;;;;;6.57;4.43;;;;;;;14.74;51.94;100419.81;5040663;28;20045;-70
2023/05/10 00:12:09;;;;;;;6.38;4.00;;;;;;;14.73;51.87;100420.84;5036619;28;20059;-70
2023/05/10 00:14:36;;;;;;;6.78;4.07;;;;;;;14.73;52.19;100428.25;5040967;28;20044;-70
2023/05/10 00:17:04;;;;;;;6.40;4.40;;;;;;;14.73;52.21;100420.00;5038592;28;20044;-70
2023/05/10 00:19:32;;;;;;;6.55;4.57;;;;;;;14.72;52.09;100421.88;5030646;28;20373;-70
2023/05/10 00:22:01;;;;;;;7.22;4.40;;;;;;;14.73;52.26;100425.50;5037181;28;20037;-70
2023/05/10 00:24:29;;;;;;;6.45;4.50;;;;;;;14.71;51.70;100427.56;5034794;28;20044;-70
2023/05/10 00:26:57;;;;;;;6.88;4.63;;;;;;;14.71;51.57;100428.41;5034207;28;20041;-70
2023/05/10 00:29:25;;;;;;;6.72;4.82;;;;;;;14.70;52.08;100421.19;5017165;28;20048;-70
2023/05/10 00:31:53;;;;;;;7.18;4.97;;;;;;;14.70;52.14;100425.84;5035970;28;20056;-70
2023/05/10 00:34:21;;;;;;;6.72;4.88;;;;;;;14.69;52.00;100426.88;5030894;28;20042;-70
2023/05/10 00:36:49;;;;;;;7.32;4.90;;;;;;;14.68;51.84;100426.00;5043530;28;20563;-70
2023/05/10 00:39:18;;;;;;;7.78;4.88;;;;;;;14.67;52.09;100418.78;5034463;28;20147;-70
2023/05/10 00:41:46;;;;;;;6.80;4.68;;;;;;;14.65;52.18;100411.72;5035336;28;20263;-70
2023/05/10 00:44:15;;;;;;;7.22;4.78;;;;;;;14.64;51.82;100416.38;5020996;28;20094;-70
2023/05/10 00:46:45;;;;;;;6.68;4.63;;;;;;;14.63;52.10;100414.66;5032035;28;20041;-70
2023/05/10 00:49:13;;;;;;;8.77;5.15;;;;;;;14.64;52.27;100418.25;5006521;28;20390;-70
2023/05/10 00:51:42;;;;;;;7.32;4.90;;;;;;;14.61;51.96;100422.22;5037279;28;20136;-70
2023/05/10 00:54:11;;;;;;;7.78;5.20;;;;;;;14.62;51.87;100426.69;5042046;28;20045;-70
2023/05/10 00:56:41;;;;;;;6.35;4.20;;;;;;;14.62;51.89;100423.94;5029995;28;20136;-71
2023/05/10 00:59:09;;;;;;;6.38;4.22;;;;;;;14.60;52.34;100426.00;5032122;28;20059;-70
2023/05/10 01:01:38;;;;;;;6.93;4.70;;;;;;;14.59;52.45;100423.44;5036136;28;20057;-70
2023/05/10 01:04:06;;;;;;;7.53;5.00;;;;;;;14.59;52.16;100428.94;5031599;28;20037;-70
2023/05/10 01:06:34;;;;;;;7.90;4.82;;;;;;;14.58;52.64;100432.72;5031419;28;20100;-70
2023/05/10 01:09:02;;;;;;;5.85;4.30;;;;;;;14.57;52.66;100429.13;5038442;28;20033;-70
2023/05/10 01:11:30;;;;;;;5.93;4.15;;;;;;;14.56;52.91;100426.53;5038228;28;20103;-70
2023/05/10 01:14:00;;;;;;;5.93;4.15;;;;;;;14.57;52.85;100422.75;5028634;28;20044;-70
2023/05/10 01:16:30;;;;;;;6.55;4.00;;;;;;;14.56;52.61;100432.91;5033042;28;20083;-70
2023/05/10 01:18:59;;;;;;;5.30;3.47;;;;;;;14.54;52.68;100432.19;5015190;28;20049;-70
2023/05/10 01:21:33;;;;;;;5.78;3.55;;;;;;;14.56;52.74;100438.41;5014947;28;20462;-69
2023/05/10 01:24:43;;;;;;;5.63;3.33;;;;;;;14.51;53.15;100437.19;5030120;28;20065;-69
2023/05/10 01:27:31;;;;;;;4.45;2.88;;;;;;;14.51;53.24;100432.56;4958130;28;20409;-70
2023/05/10 01:30:49;;;;;;;6.10;3.33;;;;;;;14.44;53.06;100434.22;5032985;28;20504;-69
2023/05/10 01:33:24;;;;;;;5.65;3.17;;;;;;;14.49;52.10;100433.75;4952790;28;20605;-70
2023/05/10 01:36:00;;;;;;;5.00;3.03;;;;;;;14.50;52.80;100435.47;5018910;28;20052;-69
2023/05/10 01:38:37;;;;;;;5.40;3.22;;;;;;;14.49;53.23;100429.09;5038268;28;20065;-70
2023/05/10 01:41:13;;;;;;;5.20;3.17;;;;;;;14.49;52.43;100433.75;5033366;28;20134;-70
2023/05/10 01:43:53;;;;;;;4.82;3.28;;;;;;;14.49;53.00;100425.50;5032085;28;20540;-70
2023/05/10 01:46:28;;;;;;;5.13;3.05;;;;;;;14.45;52.65;100441.44;5028369;28;20215;-69
2023/05/10 01:49:00;;;;;;;5.40;3.35;;;;;;;14.46;52.46;100442.31;5025808;28;20037;-69
2023/05/10 01:51:37;;;;;;;5.25;3.28;;;;;;;14.46;52.99;100439.56;5016943;28;20109;-69
2023/05/10 01:54:06;;;;;;;4.97;3.38;;;;;;;14.43;52.85;100440.78;5029975;28;20041;-70
2023/05/10 01:56:38;;;;;;;5.07;3.15;;;;;;;14.43;52.82;100439.91;5030593;28;20053;-69
2023/05/10 01:59:10;;;;;;;6.35;3.38;;;;;;;14.43;52.86;100442.66;5048162;28;21995;-68
2023/05/10 02:01:38;;;;;;;5.97;3.92;;;;;;;14.39;52.63;100439.38;5015539;28;20131;-68
2023/05/10 02:04:10;;;;;;;5.60;3.38;;;;;;;14.43;53.06;100443.53;5011117;28;20400;-69
2023/05/10 02:06:40;;;;;;;5.47;3.40;;;;;;;14.42;52.52;100440.94;5025705;28;20497;-69
2023/05/10 02:09:09;;;;;;;7.05;3.95;;;;;;;14.41;52.67;100448.34;5029966;28;20403;-69
2023/05/10 02:11:39;;;;;;;5.05;3.75;;;;;;;14.41;52.49;100440.06;5033210;28;20053;-69
2023/05/10 02:14:10;;;;;;;6.00;4.07;;;;;;;14.42;53.01;100439.03;5041695;28;20527;-69
2023/05/10 02:16:40;;;;;;;6.72;4.05;;;;;;;14.41;52.42;100434.56;5040769;28;20445;-68
2023/05/10 02:19:11;;;;;;;5.47;3.38;;;;;;;14.41;53.17;100440.06;5025118;28;20139;-69
2023/05/10 02:21:40;;;;;;;5.28;3.50;;;;;;;14.42;52.96;100443.69;5032616;28;20136;-70
2023/05/10 02:24:11;;;;;;;6.18;4.10;;;;;;;14.40;52.68;100449.34;5037517;28;20041;-69
2023/05/10 02:26:39;;;;;;;6.80;4.07;;;;;;;14.41;52.83;100452.97;5042719;28;20559;-70
2023/05/10 02:29:08;;;;;;;4.88;3.40;;;;;;;14.41;53.15;100456.59;5033329;28;20052;-70
2023/05/10 02:31:38;;;;;;;4.93;3.40;;;;;;;14.40;53.16;100452.13;5036139;28;20063;-70
2023/05/10 02:34:09;;;;;;;6.38;3.83;;;;;;;14.42;52.60;100454.69;5036273;28;20045;-69
2023/05/10 02:36:42;;;;;;;5.22;3.85;;;;;;;14.42;52.90;100461.06;5035649;28;20053;-70
2023/05/10 02:39:12;;;;;;;5.03;3.38;;;;;;;14.41;53.19;100461.25;5030893;28;20064;-70
2023/05/10 02:41:41;;;;;;;5.70;3.53;;;;;;;14.40;52.70;100468.63;5014820;28;20088;-69
2023/05/10 02:44:10;;;;;;;5.65;3.50;;;;;;;14.40;53.13;100465.88;5036465;28;20462;-70
2023/05/10 02:46:38;;;;;;;6.00;3.70;;;;;;;14.39;53.15;100464.16;5039301;28;20057;-69
2023/05/10 02:49:06;;;;;;;5.75;4.07;;;;;;;14.38;52.91;100454.16;5022717;28;20045;-70
2023/05/10 02:51:38;;;;;;;5.75;3.58;;;;;;;14.41;53.52;100467.59;5039531;28;20057;-70
2023/05/10 02:54:16;;;;;;;5.93;4.03;;;;;;;14.42;53.60;100460.22;5033507;28;20049;-70
2023/05/10 02:56:50;;;;;;;6.43;3.95;;;;;;;14.40;53.52;100460.38;5034950;28;20081;-69
2023/05/10 02:59:18;;;;;;;5.18;3.63;;;;;;;14.38;52.88;100451.41;5038379;28;20141;-70
2023/05/10 03:01:46;;;;;;;5.30;3.40;;;;;;;14.39;53.08;100464.16;5037373;28;20468;-70
2023/05/10 03:04:14;;;;;;;5.53;3.63;;;;;;;14.39;53.03;100461.41;5034096;28;20029;-69
2023/05/10 03:06:42;;;;;;;5.88;3.83;;;;;;;14.39;53.00;100461.41;5034752;28;20475;-69
2023/05/10 03:09:15;;;;;;;5.65;3.58;;;;;;;14.42;53.44;100468.47;5042310;28;20702;-69
2023/05/10 03:11:56;;;;;;;5.68;3.60;;;;;;;14.39;53.33;100467.78;5040887;28;20065;-67
2023/05/10 03:14:35;;;;;;;5.97;3.67;;;;;;;14.41;53.36;100466.75;5038693;28;20097;-68
2023/05/10 03:17:09;;;;;;;5.75;3.58;;;;;;;14.39;53.20;100465.00;5043371;28;20048;-68
2023/05/10 03:19:44;;;;;;;6.63;4.00;;;;;;;14.41;52.83;100466.75;5037180;28;20033;-68
2023/05/10 03:22:16;;;;;;;4.95;3.15;;;;;;;14.38;53.01;100468.78;5028276;28;20046;-68
2023/05/10 03:24:47;;;;;;;5.72;3.50;;;;;;;14.37;53.01;100467.06;5038553;28;20045;-69
2023/05/10 03:27:17;;;;;;;5.60;3.63;;;;;;;14.35;52.92;100471.88;5034358;28;20416;-69
2023/05/10 03:29:46;;;;;;;5.25;3.15;;;;;;;14.36;52.75;100470.84;5031994;28;20045;-69
2023/05/10 03:32:15;;;;;;;4.35;2.97;;;;;;;14.36;53.16;100478.25;5016341;28;20045;-69
2023/05/10 03:34:43;;;;;;;5.38;3.30;;;;;;;14.35;52.92;100479.31;5039206;28;20115;-69
2023/05/10 03:37:11;;;;;;;5.20;3.40;;;;;;;14.35;53.18;100482.88;5039405;28;20606;-69
2023/05/10 03:39:39;;;;;;;4.70;3.03;;;;;;;14.35;52.93;100479.31;5035520;28;20048;-69
2023/05/10 03:42:11;;;;;;;5.13;3.13;;;;;;;14.36;52.97;100481.84;5035647;28;20041;-69
2023/05/10 03:44:40;;;;;;;5.35;3.15;;;;;;;14.34;52.92;100486.69;5032060;28;20045;-69
2023/05/10 03:47:09;;;;;;;5.28;3.13;;;;;;;14.35;53.46;100484.81;5035106;28;20195;-69
2023/05/10 03:49:37;;;;;;;4.88;3.22;;;;;;;14.34;53.46;100483.94;5028431;28;20045;-69
2023/05/10 03:52:05;;;;;;;4.93;3.22;;;;;;;14.35;53.41;100482.88;5036642;28;20037;-69
2023/05/10 03:54:33;;;;;;;5.90;3.22;;;;;;;14.35;53.49;100488.38;5030584;28;20508;-69
2023/05/10 03:57:01;;;;;;;5.57;3.40;;;;;;;14.35;52.91;100485.63;5039137;28;20044;-69
2023/05/10 03:59:31;;;;;;;5.07;3.17;;;;;;;14.37;52.94;100490.97;5036878;28;20420;-69
2023/05/10 04:01:59;;;;;;;5.28;3.13;;;;;;;14.35;53.00;100504.91;5033417;28;20558;-69
2023/05/10 04:04:27;;;;;;;6.13;3.58;;;;;;;14.36;53.47;100497.50;5034472;28;20472;-69
2023/05/10 04:06:55;;;;;;;5.43;3.80;;;;;;;14.35;53.26;100493.91;5036055;28;20052;-70
2023/05/10 04:09:22;;;;;;;6.55;4.18;;;;;;;14.35;53.16;100504.91;5035663;28;20056;-70
2023/05/10 04:11:51;;;;;;;5.32;3.83;;;;;;;14.36;53.58;100503.03;5034340;28;20057;-68
2023/05/10 04:14:18;;;;;;;6.10;4.40;;;;;;;14.35;53.69;100501.31;5035757;28;20075;-68
2023/05/10 04:16:47;;;;;;;7.20;4.38;;;;;;;14.38;53.27;100500.97;5037362;28;20063;-68
2023/05/10 04:19:16;;;;;;;7.45;4.57;;;;;;;14.36;53.62;100500.25;5036332;28;20033;-68
2023/05/10 04:21:43;;;;;;;8.23;4.93;;;;;;;14.36;53.25;100503.88;5036209;28;20061;-68
2023/05/10 04:24:11;;;;;;;7.13;4.95;;;;;;;14.36;53.08;100494.75;5036075;28;20558;-68
2023/05/10 04:26:40;;;;;;;10.02;4.95;;;;;;;14.36;53.30;100498.38;5033941;28;20064;-68
2023/05/10 04:29:08;;;;;;;7.70;4.88;;;;;;;14.35;53.76;100493.06;5035877;28;20132;-68
2023/05/10 04:31:36;;;;;;;7.53;5.25;;;;;;;14.35;53.16;100495.81;5017432;28;20053;-68
2023/05/10 04:34:05;;;;;;;8.50;5.32;;;;;;;14.36;53.31;100492.88;5036619;28;20040;-68
2023/05/10 04:36:35;;;;;;;8.60;5.63;;;;;;;14.34;53.35;100496.84;5029934;28;20072;-68
2023/05/10 04:39:03;;;;;;;8.65;4.90;;;;;;;14.35;53.77;100490.31;5036814;28;20057;-68
2023/05/10 04:41:31;;;;;;;9.55;6.40;;;;;;;14.34;53.62;100497.72;5041414;28;20057;-68
2023/05/10 04:43:59;;;;;;;10.52;6.50;;;;;;;14.34;53.24;100492.19;5039588;28;20095;-68
2023/05/10 04:46:27;;;;;;;10.77;7.03;;;;;;;14.34;53.79;100492.19;5031952;28;20046;-68
2023/05/10 04:48:55;;;;;;;12.82;7.38;;;;;;;14.34;53.39;100497.72;5031784;28;20224;-70
2023/05/10 04:51:24;;;;;;;9.88;6.57;;;;;;;14.35;53.26;100507.66;5033188;28;20053;-69
2023/05/10 04:53:52;;;;;;;11.30;7.32;;;;;;;14.34;53.64;100507.84;5039978;28;20040;-70
2023/05/10 04:56:33;;;;;;;9.93;6.53;;;;;;;14.33;53.70;100507.00;5040643;28;20053;-70
2023/05/10 04:59:01;;;;;;;11.65;7.40;;;;;;;14.34;53.04;100508.72;5019225;28;20125;-69
2023/05/10 05:01:29;;;;;;;11.45;7.50;;;;;;;14.34;53.59;100510.59;5038718;28;20489;-69
2023/05/10 05:03:57;;;;;;;10.70;7.20;;;;;;;14.34;53.25;100514.22;5044876;28;20072;-69
2023/05/10 05:06:27;;;;;;;12.45;8.07;;;;;;;14.35;53.32;100515.91;5036464;28;20241;-69
2023/05/10 05:08:55;;;;;;;12.15;8.10;;;;;;;14.34;53.62;100518.88;5034469;28;20045;-69
2023/05/10 05:11:22;;;;;;;11.27;7.60;;;;;;;14.34;53.71;100518.88;5031673;28;20136;-69
2023/05/10 05:13:50;;;;;;;11.93;7.20;;;;;;;14.33;53.65;100520.75;5036243;28;20075;-70
2023/05/10 05:16:18;;;;;;;11.05;7.28;;;;;;;14.34;53.82;100522.47;5035586;28;20532;-69
2023/05/10 05:18:46;;;;;;;11.07;7.40;;;;;;;14.34;53.29;100521.63;5037541;28;20519;-70
2023/05/10 05:21:16;;;;;;;11.55;7.93;;;;;;;14.35;53.77;100526.09;5056608;23;20435;-83
2023/05/10 05:23:46;;;;;;;13.35;7.90;;;;;;;14.34;53.51;100522.47;5050358;28;20044;-84
2023/05/10 05:26:14;;;;;;;10.75;7.88;;;;;;;14.34;53.82;100528.00;5049518;28;20052;-84
2023/05/10 05:28:43;;;;;;;9.95;6.95;;;;;;;14.34;53.58;100532.63;5045298;28;20098;-84
2023/05/10 05:31:11;;;;;;;11.55;7.45;;;;;;;14.34;53.14;100532.63;5031603;28;20052;-84
2023/05/10 05:33:40;;;;;;;12.20;7.72;;;;;;;14.35;53.39;100542.63;5030419;28;20087;-84
2023/05/10 05:36:08;;;;;;;11.82;7.88;;;;;;;14.33;53.45;100539.16;5024976;28;20056;-85
2023/05/10 05:38:36;;;;;;;11.20;6.85;;;;;;;14.32;53.37;100543.81;5011772;28;20067;-83
2023/05/10 05:41:06;;;;;;;10.38;7.22;;;;;;;14.33;53.70;100536.41;5020167;28;20105;-84
2023/05/10 05:43:34;;;;;;;9.00;6.30;;;;;;;14.33;53.26;100542.78;5011944;28;20711;-84
2023/05/10 05:46:05;;;;;;;8.73;6.45;;;;;;;14.34;53.11;100547.25;5025884;28;20051;-84
2023/05/10 05:48:33;;;;;;;9.20;6.00;;;;;;;14.33;53.30;100548.28;5013147;28;20084;-83
2023/05/10 05:51:01;;;;;;;10.15;6.20;;;;;;;14.32;52.78;100552.06;5028474;28;20050;-85
2023/05/10 05:53:31;;;;;;;9.10;5.75;;;;;;;14.34;53.16;100566.53;5037761;28;20049;-85
2023/05/10 05:55:59;;;;;;;9.60;6.47;;;;;;;14.34;53.23;100562.91;5018313;28;20457;-86
2023/05/10 05:58:29;;;;;;;7.57;5.55;;;;;;;14.33;53.51;100562.06;5019686;28;20045;-82
2023/05/10 06:00:57;;;;;;;9.13;6.32;;;;;;;14.32;53.27;100564.97;5022119;28;20053;-83
2023/05/10 06:03:25;;;;;;;9.77;5.90;;;;;;;14.31;53.24;100568.75;5042851;28;20063;-84
2023/05/10 06:05:53;;;;;;;9.45;5.88;;;;;;;14.30;53.16;100575.28;5036006;28;20061;-85
2023/05/10 06:08:21;;;;;;;9.48;6.13;;;;;;;14.30;53.29;100580.78;5022298;28;20049;-84
2023/05/10 06:10:49;;;;;;;8.13;5.85;;;;;;;14.28;53.10;100572.69;5022479;28;20073;-84
2023/05/10 06:13:17;;;;;;;9.13;5.55;;;;;;;14.29;52.81;100581.78;5026385;28;20442;-84
2023/05/10 06:15:46;;;;;;;9.93;6.10;;;;;;;14.29;53.16;100579.03;5021741;28;20135;-85
2023/05/10 06:18:14;;;;;;;8.57;5.82;;;;;;;14.27;53.20;100584.72;5025329;28;20053;-83
2023/05/10 06:20:42;;;;;;;9.73;6.25;;;;;;;14.26;52.52;100573.88;5022558;28;20076;-84
2023/05/10 06:23:10;;;;;;;7.70;5.55;;;;;;;14.26;53.06;100587.66;5044001;28;20093;-86
2023/05/10 06:25:39;;;;;;;8.25;5.65;;;;;;;14.24;52.90;100595.19;5022170;28;20050;-85
2023/05/10 06:28:07;;;;;;;9.52;6.45;;;;;;;14.25;52.44;100591.44;5038924;28;20046;-86
2023/05/10 06:30:37;;;;;;;8.10;5.82;;;;;;;14.24;52.86;100590.56;5021728;28;20041;-83
2023/05/10 06:33:06;;;;;;;11.48;5.88;;;;;;;14.24;53.16;100596.06;5039191;28;20041;-86
2023/05/10 06:35:34;;;;;;;7.80;5.82;;;;;;;14.21;52.99;100596.38;5027212;28;20059;-86
2023/05/10 06:38:02;;;;;;;8.57;5.70;;;;;;;14.23;52.72;100610.84;5037081;28;20042;-83
2023/05/10 06:40:30;;;;;;;9.23;5.22;;;;;;;14.24;52.76;100604.31;5020935;28;20053;-83
2023/05/10 06:42:58;;;;;;;10.07;5.93;;;;;;;14.24;52.76;100609.84;5037828;28;20083;-83
2023/05/10 06:45:26;;;;;;;9.40;5.75;;;;;;;14.24;53.11;100612.59;5021499;28;20088;-86
2023/05/10 06:47:54;;;;;;;9.85;6.10;;;;;;;14.25;52.79;100611.56;5035703;28;20081;-86
2023/05/10 06:50:23;;;;;;;8.23;5.95;;;;;;;14.26;52.50;100610.53;5019335;28;20045;-87
2023/05/10 06:52:51;;;;;;;9.32;5.80;;;;;;;14.24;52.81;100609.84;5038331;28;20382;-86
2023/05/10 06:55:20;;;;;;;10.18;6.35;;;;;;;14.25;52.67;100616.19;5023508;28;20099;-84
2023/05/10 06:57:50;;;;;;;9.55;6.22;;;;;;;14.26;52.82;100613.28;5013092;28;20116;-84
2023/05/10 07:00:19;;;;;;;11.90;6.40;;;;;;;14.24;52.66;100622.72;5017800;28;20057;-85
2023/05/10 07:02:48;;;;;;;9.00;5.75;;;;;;;14.24;52.73;100625.47;5040159;28;20052;-84
2023/05/10 07:05:16;;;;;;;15.90;7.10;;;;;;;14.24;53.04;100620.84;5026481;28;20045;-82
2023/05/10 07:07:46;;;;;;;12.05;6.68;;;;;;;14.26;52.72;100624.31;5024871;28;20053;-84
2023/05/10 07:10:14;;;;;;;12.18;6.72;;;;;;;14.22;53.02;100617.38;5047750;28;20046;-83
2023/05/10 07:12:43;;;;;;;9.88;5.95;;;;;;;14.25;53.16;100624.47;5030909;28;20047;-86
2023/05/10 07:15:11;;;;;;;10.73;6.68;;;;;;;14.25;53.16;100619.81;5027546;28;20076;-86
2023/05/10 07:17:39;;;;;;;11.48;6.97;;;;;;;14.27;53.27;100617.75;5040930;28;20057;-87
2023/05/10 07:20:12;;;;;;;10.10;6.60;;;;;;;14.26;53.10;100626.19;5027280;28;20041;-86
2023/05/10 07:22:40;;;;;;;10.80;6.68;;;;;;;14.29;53.22;100618.44;5049260;28;20051;-84
2023/05/10 07:25:10;;;;;;;11.60;6.90;;;;;;;14.32;52.82;100623.63;5026776;28;20068;-86
2023/05/10 07:27:38;;;;;;;10.88;6.32;;;;;;;14.32;52.88;100623.63;5044717;28;20136;-84
2023/05/10 07:30:08;;;;;;;10.07;6.20;;;;;;;14.34;52.80;100624.34;5046071;28;20280;-83
2023/05/10 07:32:36;;;;;;;10.30;6.32;;;;;;;14.33;53.21;100630.00;5033947;28;20517;-86
2023/05/10 07:35:05;;;;;;;11.18;6.07;;;;;;;14.35;52.86;100628.78;5026003;28;20091;-85
2023/05/10 07:37:33;;;;;;;10.30;6.10;;;;;;;14.34;53.33;100621.59;5027823;28;20033;-84
2023/05/10 07:40:02;;;;;;;9.77;6.18;;;;;;;14.38;53.00;100627.59;5040775;28;20071;-82
2023/05/10 07:42:31;;;;;;;9.85;6.00;;;;;;;14.38;52.89;100624.84;5038631;28;20064;-85
2023/05/10 07:44:59;;;;;;;8.00;5.28;;;;;;;14.38;52.64;100622.09;5021045;28;20109;-83
2023/05/10 07:47:27;;;;;;;8.82;5.85;;;;;;;14.41;52.95;100634.69;5022784;28;20103;-83
2023/05/10 07:49:55;;;;;;;9.13;5.40;;;;;;;14.42;53.46;100639.16;5031341;28;20063;-85
2023/05/10 07:52:23;;;;;;;9.38;5.75;;;;;;;14.42;53.26;100640.03;5035354;28;20045;-83
2023/05/10 07:54:51;;;;;;;9.10;5.15;;;;;;;14.45;52.80;100642.44;5037903;28;20049;-84
2023/05/10 07:57:19;;;;;;;8.73;5.15;;;;;;;14.44;52.83;100640.72;5025227;28;20453;-82
2023/05/10 07:59:48;;;;;;;7.85;5.43;;;;;;;14.47;53.08;100640.44;5022110;28;20301;-84
2023/05/10 08:02:16;;;;;;;10.25;6.38;;;;;;;14.46;53.31;100648.81;5025809;28;20104;-84
2023/05/10 08:04:44;;;;;;;11.40;7.38;;;;;;;14.47;52.89;100631.25;5037542;28;20060;-83
2023/05/10 08:07:12;;;;;;;11.30;7.25;;;;;;;14.47;53.30;100643.19;5025623;28;20045;-85
2023/05/10 08:09:40;;;;;;;13.93;7.65;;;;;;;14.49;53.54;100648.53;5019450;28;20060;-84
2023/05/10 08:12:08;;;;;;;15.13;8.82;;;;;;;14.50;53.32;100642.00;5025475;28;20037;-84
2023/05/10 08:14:37;;;;;;;15.98;9.43;;;;;;;14.51;53.66;100652.84;5028409;28;20055;-83
2023/05/10 08:17:06;;;;;;;17.15;9.80;;;;;;;14.55;53.64;100650.63;5045157;28;20045;-84
2023/05/10 08:19:34;;;;;;;17.10;10.68;;;;;;;14.54;53.67;100652.50;5024984;28;20061;-85
2023/05/10 08:22:03;;;;;;;15.35;10.38;;;;;;;14.57;53.68;100656.81;5016019;28;20050;-84
2023/05/10 08:24:30;;;;;;;16.35;9.75;;;;;;;14.62;53.49;100663.56;5039618;28;20041;-83
2023/05/10 08:26:59;;;;;;;17.80;11.02;;;;;;;14.65;53.44;100663.22;5028433;28;20038;-83
2023/05/10 08:29:27;;;;;;;20.30;11.48;;;;;;;14.70;53.76;100666.34;5037085;28;20412;-83
2023/05/10 08:31:57;;;;;;;20.67;12.43;;;;;;;14.72;53.17;100669.81;5023069;28;20064;-84
2023/05/10 08:34:26;;;;;;;21.13;12.52;;;;;;;14.75;53.26;100660.34;5025099;28;20049;-84
2023/05/10 08:36:55;;;;;;;18.65;12.10;;;;;;;14.79;53.46;100663.63;5035059;28;20709;-84
2023/05/10 08:39:24;;;;;;;20.15;12.48;;;;;;;14.81;53.15;100672.59;5023871;28;20073;-85
2023/05/10 08:42:03;;;;;;;20.95;12.48;;;;;;;14.88;53.04;100680.03;5016399;28;20075;-83
2023/05/10 08:44:33;;;;;;;18.02;11.55;;;;;;;14.87;53.18;100680.19;5027427;28;20405;-84
2023/05/10 08:49:51;;;;;;;18.73;11.80;;;;;;;14.93;52.98;100676.78;5019220;28;20053;-85
2023/05/10 08:52:20;;;;;;;17.13;11.18;;;;;;;14.96;53.13;100682.81;5025434;28;20045;-85
2023/05/10 08:54:48;;;;;;;17.40;11.55;;;;;;;15.00;52.69;100677.84;5038489;28;20140;-83
2023/05/10 08:57:16;;;;;;;20.30;11.98;;;;;;;15.03;52.57;100681.09;5040722;28;20523;-84
2023/05/10 08:59:45;;;;;;;19.83;11.85;;;;;;;15.06;52.17;100690.94;5034878;28;20037;-86
2023/05/10 09:02:14;;;;;;;18.48;11.50;;;;;;;15.10;52.00;100692.31;5038878;28;20104;-85
2023/05/10 09:04:45;;;;;;;17.83;10.50;;;;;;;15.09;52.00;100696.13;5015337;28;20037;-84
2023/05/10 09:07:15;;;;;;;19.77;11.63;;;;;;;15.12;51.82;100696.63;5019271;28;20037;-85
2023/05/10 09:09:44;;;;;;;17.38;10.80;;;;;;;15.13;51.99;100700.25;5021635;28;20831;-85
2023/05/10 09:12:15;;;;;;;18.95;11.60;;;;;;;15.15;51.61;100700.97;5010665;28;20177;-83
2023/05/10 09:14:45;;;;;;;17.65;10.90;;;;;;;15.16;51.73;100701.81;5018961;28;20049;-83
2023/05/10 09:17:14;;;;;;;17.20;11.02;;;;;;;15.14;51.73;100704.75;5016717;28;20038;-85
2023/05/10 09:19:42;;;;;;;15.82;9.70;;;;;;;15.13;51.84;100705.75;5030705;28;20042;-85
2023/05/10 09:22:11;;;;;;;13.90;9.18;;;;;;;15.16;51.74;100715.59;5018566;28;20068;-84
2023/05/10 09:24:44;;;;;;;15.55;9.77;;;;;;;15.17;51.74;100707.16;5020996;28;20099;-85
2023/05/10 09:27:13;;;;;;;14.20;9.60;;;;;;;15.12;51.75;100704.91;5033586;28;20041;-83
2023/05/10 09:29:43;;;;;;;13.02;8.65;;;;;;;15.15;51.29;100711.97;5025434;28;20480;-85
2023/05/10 09:32:12;;;;;;;14.80;8.77;;;;;;;15.17;51.39;100712.69;5021712;28;20080;-84
2023/05/10 09:34:42;;;;;;;15.43;9.02;;;;;;;15.15;51.29;100714.75;5019505;28;20042;-86
2023/05/10 09:37:10;;;;;;;12.80;8.40;;;;;;;15.17;51.07;100722.84;5028473;28;20108;-84
2023/05/10 09:39:41;;;;;;;12.50;8.65;;;;;;;15.18;51.45;100719.06;5035237;28;20041;-85
2023/05/10 09:42:13;;;;;;;13.75;8.40;;;;;;;15.19;51.41;100720.75;5020498;28;20109;-85
2023/05/10 09:44:43;;;;;;;13.18;8.30;;;;;;;15.18;51.20;100722.66;5004257;28;20049;-85
2023/05/10 09:47:11;;;;;;;12.25;8.07;;;;;;;15.20;51.43;100730.75;5019886;28;20061;-84
2023/05/10 09:49:40;;;;;;;12.07;8.25;;;;;;;15.22;50.86;100725.94;5040137;28;20063;-84
2023/05/10 09:52:08;;;;;;;11.82;8.30;;;;;;;15.23;50.86;100734.06;5019163;28;20041;-85
2023/05/10 09:54:37;;;;;;;11.25;7.75;;;;;;;15.25;50.96;100729.25;5020658;28;20068;-85
2023/05/10 09:57:30;;;;;;;11.85;7.82;;;;;;;15.28;50.63;100737.16;5019363;28;20561;-85
2023/05/10 10:00:04;;;;;;;11.07;7.45;;;;;;;15.27;50.83;100727.16;5009421;28;20140;-85
2023/05/10 10:02:40;;;;;;;12.07;7.35;;;;;;;15.28;50.50;100730.78;5038483;28;20053;-85
2023/05/10 10:05:09;;;;;;;13.20;8.05;;;;;;;15.30;50.27;100732.34;5020370;28;20460;-85
2023/05/10 10:07:37;;;;;;;9.60;7.45;;;;;;;15.31;50.20;100738.72;5022389;28;20493;-85
2023/05/10 10:10:11;;;;;;;10.70;6.43;;;;;;;15.31;50.03;100727.69;5032335;28;20045;-85
2023/05/10 10:12:42;;;;;;;10.32;6.70;;;;;;;15.33;49.47;100736.69;5048509;28;20055;-85
2023/05/10 10:15:11;;;;;;;9.63;6.28;;;;;;;15.34;49.93;100732.94;5018696;28;20552;-84
2023/05/10 10:17:43;;;;;;;10.73;6.82;;;;;;;15.33;49.76;100733.91;5037857;28;20055;-85
2023/05/10 10:20:12;;;;;;;10.93;6.25;;;;;;;15.31;49.89;100742.34;5023300;28;20526;-85
2023/05/10 10:22:40;;;;;;;11.18;7.00;;;;;;;15.31;49.65;100736.84;5021395;28;20524;-84
2023/05/10 10:25:09;;;;;;;12.07;6.72;;;;;;;15.32;49.63;100745.97;5023210;28;20049;-85
2023/05/10 10:27:49;;;;;;;10.88;6.68;;;;;;;15.33;49.21;100751.31;5028617;28;20072;-84
2023/05/10 10:30:27;;;;;;;11.05;7.18;;;;;;;15.34;49.23;100754.97;5035166;28;20041;-84
2023/05/10 10:33:17;;;;;;;11.05;7.40;;;;;;;15.31;49.02;100742.34;5021524;28;20046;-85
2023/05/10 10:35:58;;;;;;;11.68;7.55;;;;;;;15.34;49.51;100749.47;5011974;28;20069;-85
2023/05/10 10:38:27;;;;;;;11.65;7.43;;;;;;;15.33;49.44;100754.09;5041568;28;20025;-85
2023/05/10 10:41:03;;;;;;;13.88;8.00;;;;;;;15.38;49.21;100751.72;5026379;28;20068;-86
2023/05/10 10:43:33;;;;;;;12.25;7.45;;;;;;;15.37;49.91;100755.50;5041504;28;20045;-84
2023/05/10 10:46:14;;;;;;;10.95;7.28;;;;;;;15.42;49.70;100752.25;5027834;28;20037;-84
2023/05/10 10:48:47;;;;;;;9.23;6.15;;;;;;;15.41;49.99;100751.38;5023364;28;20064;-84
2023/05/10 10:51:15;;;;;;;11.15;6.95;;;;;;;15.45;50.12;100747.25;5017197;28;20045;-83
2023/05/10 10:53:44;;;;;;;10.50;7.32;;;;;;;15.51;49.95;100745.69;5034853;28;20061;-84
2023/05/10 10:56:14;;;;;;;9.73;6.55;;;;;;;15.53;49.40;100749.16;5037819;28;20041;-85
2023/05/10 10:58:51;;;;;;;9.90;6.78;;;;;;;15.59;48.40;100753.97;5027049;28;20087;-84
2023/05/10 11:01:20;;;;;;;10.40;6.05;;;;;;;15.60;49.18;100757.59;5025007;28;20393;-85
2023/05/10 11:04:20;;;;;;;7.47;5.13;;;;;;;15.63;48.45;100757.28;5023165;28;20045;-85
2023/05/10 11:06:48;;;;;;;9.52;6.60;;;;;;;15.62;48.83;100756.41;5013052;28;20065;-85
2023/05/10 11:09:17;;;;;;;8.85;6.13;;;;;;;15.65;49.29;100757.97;5021403;28;20045;-85
2023/05/10 11:11:55;;;;;;;9.85;6.63;;;;;;;15.69;48.08;100754.69;5019480;28;20057;-85
2023/05/10 11:14:26;;;;;;;9.45;6.13;;;;;;;15.72;49.23;100757.13;5024046;28;20075;-87
2023/05/10 11:16:54;;;;;;;9.93;6.70;;;;;;;15.71;48.75;100757.28;5029444;28;20042;-84
2023/05/10 11:19:22;;;;;;;10.90;7.15;;;;;;;15.74;48.84;100771.63;5019070;28;20057;-85
2023/05/10 11:21:51;;;;;;;11.07;7.60;;;;;;;15.77;48.62;100765.75;4995192;22;20060;-87
2023/05/10 11:24:21;;;;;;;11.23;7.50;;;;;;;15.77;48.61;100773.16;4970619;28;20391;-86
2023/05/10 11:26:52;;;;;;;11.23;7.45;;;;;;;15.79;48.36;100776.63;4971798;28;20051;-86
2023/05/10 11:29:20;;;;;;;12.13;7.95;;;;;;;15.78;48.34;100777.66;4946792;28;20040;-87
2023/05/10 11:31:50;;;;;;;12.20;7.70;;;;;;;15.80;48.14;100775.59;4954717;28;20047;-87
2023/05/10 11:34:30;;;;;;;10.73;7.10;;;;;;;15.81;48.14;100780.94;4981329;28;20435;-86
2023/05/10 11:37:14;;;;;;;13.00;6.97;;;;;;;15.81;48.53;100782.84;4974581;28;20099;-86
2023/05/10 11:53:44;;;;;;;10.38;7.32;;;;;;;15.70;48.62;100781.25;4982386;28;20483;-87